sensor_id;sensor_type;location;lat;lon;timestamp;temperature;humidity
16827;DHT22;8530;49.540;8.576;2022-12-18T00:00:48;-5.00;99.90
16827;DHT22;8530;49.540;8.576;2022-12-18T00:03:15;-5.00;99.90
16827;DHT22;8530;49.540;8.576;2022-12-18T00:05:47;-5.00;99.90
16827;DHT22;8530;49.540;8.576;2022-12-18T00:08:14;-5.00;99.90
16827;DHT22;8530;49.540;8.576;2022-12-18T00:10:42;-5.10;99.90
16827;DHT22;8530;49.540;8.576;2022-12-18T00:13:10;-5.10;99.90
16827;DHT22;8530;49.540;8.576;2022-12-18T00:15:38;-5.10;99.90
16827;DHT22;8530;49.540;8.576;2022-12-18T00:18:05;-5.10;99.90
16827;DHT22;8530;49.540;8.576;2022-12-18T00:20:36;-5.10;99.90
16827;DHT22;8530;49.540;8.576;2022-12-18T00:23:03;-5.10;99.90
16827;DHT22;8530;49.540;8.576;2022-12-18T00:25:29;-5.20;99.90
16827;DHT22;8530;49.540;8.576;2022-12-18T00:27:59;-5.20;99.90
16827;DHT22;8530;49.540;8.576;2022-12-18T00:30:27;-5.20;99.90
16827;DHT22;8530;49.540;8.576;2022-12-18T00:32:53;-5.30;99.90
16827;DHT22;8530;49.540;8.576;2022-12-18T00:35:20;-5.30;99.90
16827;DHT22;8530;49.540;8.576;2022-12-18T00:37:47;-5.30;99.90
16827;DHT22;8530;49.540;8.576;2022-12-18T00:40:14;-5.40;99.90
16827;DHT22;8530;49.540;8.576;2022-12-18T00:42:41;-5.40;99.90
16827;DHT22;8530;49.540;8.576;2022-12-18T00:45:24;-5.40;99.90
16827;DHT22;8530;49.540;8.576;2022-12-18T00:47:50;-5.50;99.90
16827;DHT22;8530;49.540;8.576;2022-12-18T00:50:17;-5.60;99.90
16827;DHT22;8530;49.540;8.576;2022-12-18T00:52:44;-5.60;99.90
16827;DHT22;8530;49.540;8.576;2022-12-18T00:55:12;-5.60;99.90
16827;DHT22;8530;49.540;8.576;2022-12-18T00:57:39;-5.70;99.90
16827;DHT22;8530;49.540;8.576;2022-12-18T01:00:09;-5.70;99.90
16827;DHT22;8530;49.540;8.576;2022-12-18T01:02:40;-5.70;99.90
16827;DHT22;8530;49.540;8.576;2022-12-18T01:05:08;-5.70;99.90
16827;DHT22;8530;49.540;8.576;2022-12-18T01:07:34;-5.70;99.90
16827;DHT22;8530;49.540;8.576;2022-12-18T01:10:01;-5.70;99.90
16827;DHT22;8530;49.540;8.576;2022-12-18T01:12:28;-5.80;99.80
16827;DHT22;8530;49.540;8.576;2022-12-18T01:14:55;-5.90;99.80
16827;DHT22;8530;49.540;8.576;2022-12-18T01:17:22;-5.90;99.80
16827;DHT22;8530;49.540;8.576;2022-12-18T01:19:50;-6.00;99.80
16827;DHT22;8530;49.540;8.576;2022-12-18T01:22:17;-6.00;99.90
16827;DHT22;8530;49.540;8.576;2022-12-18T01:24:43;-6.10;99.90
16827;DHT22;8530;49.540;8.576;2022-12-18T01:27:10;-6.10;99.90
16827;DHT22;8530;49.540;8.576;2022-12-18T01:29:37;-6.20;99.80
16827;DHT22;8530;49.540;8.576;2022-12-18T01:32:04;-6.20;99.90
16827;DHT22;8530;49.540;8.576;2022-12-18T01:34:31;-6.20;99.90
16827;DHT22;8530;49.540;8.576;2022-12-18T01:37:02;-6.10;99.90
16827;DHT22;8530;49.540;8.576;2022-12-18T01:39:30;-6.10;99.90
16827;DHT22;8530;49.540;8.576;2022-12-18T01:41:57;-6.10;99.90
16827;DHT22;8530;49.540;8.576;2022-12-18T01:44:54;-6.10;99.90
16827;DHT22;8530;49.540;8.576;2022-12-18T01:47:24;-6.10;99.90
16827;DHT22;8530;49.540;8.576;2022-12-18T01:49:51;-6.10;99.80
16827;DHT22;8530;49.540;8.576;2022-12-18T01:52:21;-6.10;99.90
16827;DHT22;8530;49.540;8.576;2022-12-18T01:54:50;-6.10;99.90
16827;DHT22;8530;49.540;8.576;2022-12-18T01:57:18;-6.10;99.90
16827;DHT22;8530;49.540;8.576;2022-12-18T01:59:47;-6.10;99.90
16827;DHT22;8530;49.540;8.576;2022-12-18T02:02:16;-6.10;99.90
16827;DHT22;8530;49.540;8.576;2022-12-18T02:04:44;-6.20;99.90
16827;DHT22;8530;49.540;8.576;2022-12-18T02:07:16;-6.20;99.90
16827;DHT22;8530;49.540;8.576;2022-12-18T02:09:47;-6.30;99.80
16827;DHT22;8530;49.540;8.576;2022-12-18T02:12:19;-6.30;99.90
16827;DHT22;8530;49.540;8.576;2022-12-18T02:14:53;-6.30;99.90
16827;DHT22;8530;49.540;8.576;2022-12-18T02:17:23;-6.30;99.90
16827;DHT22;8530;49.540;8.576;2022-12-18T02:20:04;-6.30;99.90
16827;DHT22;8530;49.540;8.576;2022-12-18T02:22:41;-6.30;99.80
16827;DHT22;8530;49.540;8.576;2022-12-18T02:25:24;-6.40;99.70
16827;DHT22;8530;49.540;8.576;2022-12-18T02:28:00;-6.40;99.80
16827;DHT22;8530;49.540;8.576;2022-12-18T02:30:31;-6.40;99.80
16827;DHT22;8530;49.540;8.576;2022-12-18T02:32:59;-6.50;99.80
16827;DHT22;8530;49.540;8.576;2022-12-18T02:35:29;-6.40;99.90
16827;DHT22;8530;49.540;8.576;2022-12-18T02:37:57;-6.40;99.90
16827;DHT22;8530;49.540;8.576;2022-12-18T02:40:26;-6.40;99.90
16827;DHT22;8530;49.540;8.576;2022-12-18T02:43:07;-6.50;99.90
16827;DHT22;8530;49.540;8.576;2022-12-18T02:45:34;-6.50;99.80
16827;DHT22;8530;49.540;8.576;2022-12-18T02:48:01;-6.60;99.80
16827;DHT22;8530;49.540;8.576;2022-12-18T02:50:31;-6.60;99.80
16827;DHT22;8530;49.540;8.576;2022-12-18T02:53:09;-6.60;99.90
16827;DHT22;8530;49.540;8.576;2022-12-18T02:55:47;-6.60;99.90
16827;DHT22;8530;49.540;8.576;2022-12-18T02:58:23;-6.50;99.90
16827;DHT22;8530;49.540;8.576;2022-12-18T03:00:59;-6.50;99.90
16827;DHT22;8530;49.540;8.576;2022-12-18T03:03:31;-6.50;99.90
16827;DHT22;8530;49.540;8.576;2022-12-18T03:06:04;-6.40;99.90
16827;DHT22;8530;49.540;8.576;2022-12-18T03:08:36;-6.40;99.90
16827;DHT22;8530;49.540;8.576;2022-12-18T03:11:07;-6.50;99.90
16827;DHT22;8530;49.540;8.576;2022-12-18T03:13:38;-6.50;99.90
16827;DHT22;8530;49.540;8.576;2022-12-18T03:16:09;-6.50;99.90
16827;DHT22;8530;49.540;8.576;2022-12-18T03:18:40;-6.50;99.90
16827;DHT22;8530;49.540;8.576;2022-12-18T03:21:10;-6.50;99.90
16827;DHT22;8530;49.540;8.576;2022-12-18T03:23:40;-6.50;99.80
16827;DHT22;8530;49.540;8.576;2022-12-18T03:26:11;-6.50;99.80
16827;DHT22;8530;49.540;8.576;2022-12-18T03:28:44;-6.50;99.80
16827;DHT22;8530;49.540;8.576;2022-12-18T03:31:14;-6.50;99.90
16827;DHT22;8530;49.540;8.576;2022-12-18T03:33:47;-6.60;99.80
16827;DHT22;8530;49.540;8.576;2022-12-18T03:36:17;-6.70;99.80
16827;DHT22;8530;49.540;8.576;2022-12-18T03:38:46;-6.70;99.80
16827;DHT22;8530;49.540;8.576;2022-12-18T03:41:19;-6.80;99.80
16827;DHT22;8530;49.540;8.576;2022-12-18T03:43:54;-6.80;99.80
16827;DHT22;8530;49.540;8.576;2022-12-18T03:46:26;-6.80;99.80
16827;DHT22;8530;49.540;8.576;2022-12-18T03:49:00;-6.80;99.80
16827;DHT22;8530;49.540;8.576;2022-12-18T03:51:34;-6.80;99.80
16827;DHT22;8530;49.540;8.576;2022-12-18T03:54:06;-6.80;99.80
16827;DHT22;8530;49.540;8.576;2022-12-18T03:56:44;-6.80;99.80
16827;DHT22;8530;49.540;8.576;2022-12-18T03:59:15;-6.70;99.90
16827;DHT22;8530;49.540;8.576;2022-12-18T04:01:46;-6.80;99.80
16827;DHT22;8530;49.540;8.576;2022-12-18T04:04:15;-6.80;99.80
16827;DHT22;8530;49.540;8.576;2022-12-18T04:06:45;-6.80;99.80
16827;DHT22;8530;49.540;8.576;2022-12-18T04:09:13;-6.80;99.80
16827;DHT22;8530;49.540;8.576;2022-12-18T04:11:41;-6.80;99.80
16827;DHT22;8530;49.540;8.576;2022-12-18T04:14:10;-6.80;99.80
16827;DHT22;8530;49.540;8.576;2022-12-18T04:16:39;-6.80;99.80
16827;DHT22;8530;49.540;8.576;2022-12-18T04:19:05;-6.80;99.80
16827;DHT22;8530;49.540;8.576;2022-12-18T04:21:32;-6.80;99.80
16827;DHT22;8530;49.540;8.576;2022-12-18T04:23:59;-6.80;99.80
16827;DHT22;8530;49.540;8.576;2022-12-18T04:26:27;-6.90;99.80
16827;DHT22;8530;49.540;8.576;2022-12-18T04:28:53;-6.90;99.80
16827;DHT22;8530;49.540;8.576;2022-12-18T04:31:20;-6.90;99.80
16827;DHT22;8530;49.540;8.576;2022-12-18T04:33:49;-6.90;99.80
16827;DHT22;8530;49.540;8.576;2022-12-18T04:36:15;-6.90;99.80
16827;DHT22;8530;49.540;8.576;2022-12-18T04:38:42;-6.90;99.70
16827;DHT22;8530;49.540;8.576;2022-12-18T04:41:09;-6.90;99.70
16827;DHT22;8530;49.540;8.576;2022-12-18T04:43:35;-7.00;99.70
16827;DHT22;8530;49.540;8.576;2022-12-18T04:46:03;-7.00;99.80
16827;DHT22;8530;49.540;8.576;2022-12-18T04:48:30;-7.00;99.80
16827;DHT22;8530;49.540;8.576;2022-12-18T04:50:59;-7.00;99.90
16827;DHT22;8530;49.540;8.576;2022-12-18T04:53:26;-7.00;99.90
16827;DHT22;8530;49.540;8.576;2022-12-18T04:56:03;-6.90;99.90
16827;DHT22;8530;49.540;8.576;2022-12-18T04:58:29;-6.90;99.90
16827;DHT22;8530;49.540;8.576;2022-12-18T05:00:56;-6.90;99.90
16827;DHT22;8530;49.540;8.576;2022-12-18T05:03:23;-6.90;99.90
16827;DHT22;8530;49.540;8.576;2022-12-18T05:05:50;-6.80;99.90
16827;DHT22;8530;49.540;8.576;2022-12-18T05:08:19;-6.80;99.90
16827;DHT22;8530;49.540;8.576;2022-12-18T05:10:45;-6.80;99.90
16827;DHT22;8530;49.540;8.576;2022-12-18T05:13:12;-6.90;99.80
16827;DHT22;8530;49.540;8.576;2022-12-18T05:15:39;-6.90;99.70
16827;DHT22;8530;49.540;8.576;2022-12-18T05:18:07;-7.00;99.70
16827;DHT22;8530;49.540;8.576;2022-12-18T05:20:35;-7.10;99.60
16827;DHT22;8530;49.540;8.576;2022-12-18T05:23:01;-7.10;99.70
16827;DHT22;8530;49.540;8.576;2022-12-18T05:25:29;-7.10;99.70
16827;DHT22;8530;49.540;8.576;2022-12-18T05:27:56;-7.10;99.70
16827;DHT22;8530;49.540;8.576;2022-12-18T05:30:23;-7.10;99.80
16827;DHT22;8530;49.540;8.576;2022-12-18T05:32:50;-7.10;99.80
16827;DHT22;8530;49.540;8.576;2022-12-18T05:35:17;-7.10;99.70
16827;DHT22;8530;49.540;8.576;2022-12-18T05:37:44;-7.20;99.70
16827;DHT22;8530;49.540;8.576;2022-12-18T05:40:11;-7.20;99.70
16827;DHT22;8530;49.540;8.576;2022-12-18T05:42:40;-7.20;99.80
16827;DHT22;8530;49.540;8.576;2022-12-18T05:45:07;-7.10;99.80
16827;DHT22;8530;49.540;8.576;2022-12-18T05:47:36;-7.10;99.80
16827;DHT22;8530;49.540;8.576;2022-12-18T05:50:05;-7.00;99.90
16827;DHT22;8530;49.540;8.576;2022-12-18T05:52:32;-7.00;99.90
16827;DHT22;8530;49.540;8.576;2022-12-18T05:54:59;-7.00;99.80
16827;DHT22;8530;49.540;8.576;2022-12-18T05:57:26;-7.10;99.70
16827;DHT22;8530;49.540;8.576;2022-12-18T05:59:54;-7.10;99.70
16827;DHT22;8530;49.540;8.576;2022-12-18T06:02:21;-7.10;99.80
16827;DHT22;8530;49.540;8.576;2022-12-18T06:04:47;-7.10;99.80
16827;DHT22;8530;49.540;8.576;2022-12-18T06:07:14;-7.00;99.90
16827;DHT22;8530;49.540;8.576;2022-12-18T06:09:41;-7.00;99.80
16827;DHT22;8530;49.540;8.576;2022-12-18T06:12:07;-7.10;99.80
16827;DHT22;8530;49.540;8.576;2022-12-18T06:14:34;-7.10;99.80
16827;DHT22;8530;49.540;8.576;2022-12-18T06:17:02;-7.00;99.90
16827;DHT22;8530;49.540;8.576;2022-12-18T06:19:29;-7.00;99.90
16827;DHT22;8530;49.540;8.576;2022-12-18T06:21:56;-7.00;99.90
16827;DHT22;8530;49.540;8.576;2022-12-18T06:24:24;-7.00;99.90
16827;DHT22;8530;49.540;8.576;2022-12-18T06:26:51;-7.00;99.90
16827;DHT22;8530;49.540;8.576;2022-12-18T06:29:17;-7.00;99.90
16827;DHT22;8530;49.540;8.576;2022-12-18T06:31:44;-6.90;99.90
16827;DHT22;8530;49.540;8.576;2022-12-18T06:34:12;-6.90;99.90
16827;DHT22;8530;49.540;8.576;2022-12-18T06:36:39;-6.80;99.90
16827;DHT22;8530;49.540;8.576;2022-12-18T06:39:06;-6.80;99.90
16827;DHT22;8530;49.540;8.576;2022-12-18T06:41:33;-6.80;99.90
16827;DHT22;8530;49.540;8.576;2022-12-18T06:44:00;-6.80;99.90
16827;DHT22;8530;49.540;8.576;2022-12-18T06:46:27;-6.80;99.90
16827;DHT22;8530;49.540;8.576;2022-12-18T06:48:54;-6.70;99.90
16827;DHT22;8530;49.540;8.576;2022-12-18T06:51:23;-6.80;99.90
16827;DHT22;8530;49.540;8.576;2022-12-18T06:53:50;-6.80;99.90
16827;DHT22;8530;49.540;8.576;2022-12-18T06:56:17;-6.70;99.90
16827;DHT22;8530;49.540;8.576;2022-12-18T06:58:44;-6.70;99.90
16827;DHT22;8530;49.540;8.576;2022-12-18T07:01:11;-6.70;99.90
16827;DHT22;8530;49.540;8.576;2022-12-18T07:03:39;-6.80;99.90
16827;DHT22;8530;49.540;8.576;2022-12-18T07:06:11;-6.70;99.90
16827;DHT22;8530;49.540;8.576;2022-12-18T07:08:40;-6.70;99.90
16827;DHT22;8530;49.540;8.576;2022-12-18T07:11:07;-6.70;99.90
16827;DHT22;8530;49.540;8.576;2022-12-18T07:13:33;-6.70;99.90
16827;DHT22;8530;49.540;8.576;2022-12-18T07:16:05;-6.70;99.90
16827;DHT22;8530;49.540;8.576;2022-12-18T07:18:33;-6.70;99.90
16827;DHT22;8530;49.540;8.576;2022-12-18T07:21:02;-6.70;99.90
16827;DHT22;8530;49.540;8.576;2022-12-18T07:23:33;-6.70;99.90
16827;DHT22;8530;49.540;8.576;2022-12-18T07:26:02;-6.80;99.90
16827;DHT22;8530;49.540;8.576;2022-12-18T07:28:30;-6.80;99.90
16827;DHT22;8530;49.540;8.576;2022-12-18T07:30:57;-6.80;99.90
16827;DHT22;8530;49.540;8.576;2022-12-18T07:33:26;-6.80;99.90
16827;DHT22;8530;49.540;8.576;2022-12-18T07:35:53;-6.80;99.90
16827;DHT22;8530;49.540;8.576;2022-12-18T07:38:20;-6.80;99.90
16827;DHT22;8530;49.540;8.576;2022-12-18T07:40:47;-6.70;99.90
16827;DHT22;8530;49.540;8.576;2022-12-18T07:43:18;-6.60;99.90
16827;DHT22;8530;49.540;8.576;2022-12-18T07:45:45;-6.60;99.90
16827;DHT22;8530;49.540;8.576;2022-12-18T07:48:12;-6.60;99.90
16827;DHT22;8530;49.540;8.576;2022-12-18T07:50:38;-6.60;99.90
16827;DHT22;8530;49.540;8.576;2022-12-18T07:53:05;-6.60;99.90
16827;DHT22;8530;49.540;8.576;2022-12-18T07:55:32;-6.50;99.90
16827;DHT22;8530;49.540;8.576;2022-12-18T07:58:01;-6.50;99.90
16827;DHT22;8530;49.540;8.576;2022-12-18T08:00:30;-6.40;99.90
16827;DHT22;8530;49.540;8.576;2022-12-18T08:02:57;-6.40;99.90
16827;DHT22;8530;49.540;8.576;2022-12-18T08:05:24;-6.30;99.90
16827;DHT22;8530;49.540;8.576;2022-12-18T08:07:51;-6.30;99.90
16827;DHT22;8530;49.540;8.576;2022-12-18T08:10:19;-6.20;99.90
16827;DHT22;8530;49.540;8.576;2022-12-18T08:12:48;-6.20;99.90
16827;DHT22;8530;49.540;8.576;2022-12-18T08:15:15;-6.10;99.90
16827;DHT22;8530;49.540;8.576;2022-12-18T08:17:43;-6.10;99.90
16827;DHT22;8530;49.540;8.576;2022-12-18T08:20:11;-6.00;99.90
16827;DHT22;8530;49.540;8.576;2022-12-18T08:22:39;-6.00;99.90
16827;DHT22;8530;49.540;8.576;2022-12-18T08:25:07;-5.90;99.90
16827;DHT22;8530;49.540;8.576;2022-12-18T08:27:34;-5.90;99.90
16827;DHT22;8530;49.540;8.576;2022-12-18T08:30:02;-5.90;99.90
16827;DHT22;8530;49.540;8.576;2022-12-18T08:32:29;-5.90;99.90
16827;DHT22;8530;49.540;8.576;2022-12-18T08:34:57;-5.80;99.90
16827;DHT22;8530;49.540;8.576;2022-12-18T08:37:24;-5.80;99.90
16827;DHT22;8530;49.540;8.576;2022-12-18T08:39:50;-5.80;99.90
16827;DHT22;8530;49.540;8.576;2022-12-18T08:42:17;-5.70;99.90
16827;DHT22;8530;49.540;8.576;2022-12-18T08:45:02;-5.70;99.90
16827;DHT22;8530;49.540;8.576;2022-12-18T08:47:29;-5.60;99.90
16827;DHT22;8530;49.540;8.576;2022-12-18T08:50:02;-5.70;99.90
16827;DHT22;8530;49.540;8.576;2022-12-18T08:52:35;-5.70;99.90
16827;DHT22;8530;49.540;8.576;2022-12-18T08:55:04;-5.70;99.90
16827;DHT22;8530;49.540;8.576;2022-12-18T08:57:31;-5.70;99.90
16827;DHT22;8530;49.540;8.576;2022-12-18T09:00:00;-5.70;99.90
16827;DHT22;8530;49.540;8.576;2022-12-18T09:02:27;-5.60;99.90
16827;DHT22;8530;49.540;8.576;2022-12-18T09:04:54;-5.50;99.90
16827;DHT22;8530;49.540;8.576;2022-12-18T09:07:22;-5.50;99.90
16827;DHT22;8530;49.540;8.576;2022-12-18T09:09:49;-5.40;99.90
16827;DHT22;8530;49.540;8.576;2022-12-18T09:12:15;-5.30;99.90
16827;DHT22;8530;49.540;8.576;2022-12-18T09:14:42;-5.10;99.90
16827;DHT22;8530;49.540;8.576;2022-12-18T09:17:09;-4.90;99.90
16827;DHT22;8530;49.540;8.576;2022-12-18T09:19:36;-4.70;99.90
16827;DHT22;8530;49.540;8.576;2022-12-18T09:22:06;-4.60;99.90
16827;DHT22;8530;49.540;8.576;2022-12-18T09:24:34;-4.50;99.90
16827;DHT22;8530;49.540;8.576;2022-12-18T09:27:01;-4.30;99.90
16827;DHT22;8530;49.540;8.576;2022-12-18T09:29:28;-4.30;99.90
16827;DHT22;8530;49.540;8.576;2022-12-18T09:31:55;-4.30;99.90
16827;DHT22;8530;49.540;8.576;2022-12-18T09:34:24;-4.10;99.90
16827;DHT22;8530;49.540;8.576;2022-12-18T09:36:50;-3.80;99.90
16827;DHT22;8530;49.540;8.576;2022-12-18T09:39:17;-3.70;99.90
16827;DHT22;8530;49.540;8.576;2022-12-18T09:41:57;-3.70;99.90
16827;DHT22;8530;49.540;8.576;2022-12-18T09:44:30;-3.70;99.90
16827;DHT22;8530;49.540;8.576;2022-12-18T09:47:13;-3.60;99.90
16827;DHT22;8530;49.540;8.576;2022-12-18T09:49:43;-3.50;99.80
16827;DHT22;8530;49.540;8.576;2022-12-18T09:52:16;-3.50;99.70
16827;DHT22;8530;49.540;8.576;2022-12-18T09:54:46;-3.50;99.70
16827;DHT22;8530;49.540;8.576;2022-12-18T09:57:18;-3.40;99.70
16827;DHT22;8530;49.540;8.576;2022-12-18T09:59:49;-3.30;99.70
16827;DHT22;8530;49.540;8.576;2022-12-18T10:02:18;-3.20;99.70
16827;DHT22;8530;49.540;8.576;2022-12-18T10:04:51;-3.10;99.70
16827;DHT22;8530;49.540;8.576;2022-12-18T10:07:26;-2.90;99.70
16827;DHT22;8530;49.540;8.576;2022-12-18T10:10:02;-2.80;99.70
16827;DHT22;8530;49.540;8.576;2022-12-18T10:12:41;-2.70;99.60
16827;DHT22;8530;49.540;8.576;2022-12-18T10:15:16;-2.60;99.60
16827;DHT22;8530;49.540;8.576;2022-12-18T10:17:50;-2.50;99.50
16827;DHT22;8530;49.540;8.576;2022-12-18T10:20:23;-2.50;99.40
16827;DHT22;8530;49.540;8.576;2022-12-18T10:22:59;-2.40;99.60
16827;DHT22;8530;49.540;8.576;2022-12-18T10:25:31;-2.30;99.40
16827;DHT22;8530;49.540;8.576;2022-12-18T10:28:09;-2.20;99.40
16827;DHT22;8530;49.540;8.576;2022-12-18T10:30:38;-2.10;99.40
16827;DHT22;8530;49.540;8.576;2022-12-18T10:33:08;-2.00;99.30
16827;DHT22;8530;49.540;8.576;2022-12-18T10:35:40;-2.00;99.20
16827;DHT22;8530;49.540;8.576;2022-12-18T10:38:21;-1.90;99.20
16827;DHT22;8530;49.540;8.576;2022-12-18T10:40:51;-1.80;99.20
16827;DHT22;8530;49.540;8.576;2022-12-18T10:43:24;-1.70;99.20
16827;DHT22;8530;49.540;8.576;2022-12-18T10:46:12;-1.60;99.20
16827;DHT22;8530;49.540;8.576;2022-12-18T10:48:50;-1.50;99.20
16827;DHT22;8530;49.540;8.576;2022-12-18T10:51:23;-1.30;99.20
16827;DHT22;8530;49.540;8.576;2022-12-18T10:53:55;-1.10;99.20
16827;DHT22;8530;49.540;8.576;2022-12-18T10:56:25;-1.00;99.10
16827;DHT22;8530;49.540;8.576;2022-12-18T10:58:59;-1.00;99.00
16827;DHT22;8530;49.540;8.576;2022-12-18T11:01:27;-0.90;98.90
16827;DHT22;8530;49.540;8.576;2022-12-18T11:04:04;-0.90;98.90
16827;DHT22;8530;49.540;8.576;2022-12-18T11:06:34;-0.70;98.90
16827;DHT22;8530;49.540;8.576;2022-12-18T11:09:20;-0.70;98.60
16827;DHT22;8530;49.540;8.576;2022-12-18T11:11:48;-0.80;98.50
16827;DHT22;8530;49.540;8.576;2022-12-18T11:14:22;-0.70;98.50
16827;DHT22;8530;49.540;8.576;2022-12-18T11:16:51;-0.60;98.40
16827;DHT22;8530;49.540;8.576;2022-12-18T11:19:33;-0.70;98.30
16827;DHT22;8530;49.540;8.576;2022-12-18T11:22:01;-0.70;98.10
16827;DHT22;8530;49.540;8.576;2022-12-18T11:24:30;-0.70;98.00
16827;DHT22;8530;49.540;8.576;2022-12-18T11:26:59;-0.80;97.90
16827;DHT22;8530;49.540;8.576;2022-12-18T11:29:33;-0.80;97.90
16827;DHT22;8530;49.540;8.576;2022-12-18T11:32:22;-0.80;97.90
16827;DHT22;8530;49.540;8.576;2022-12-18T11:34:57;-0.80;97.80
16827;DHT22;8530;49.540;8.576;2022-12-18T11:37:27;-0.90;97.70
16827;DHT22;8530;49.540;8.576;2022-12-18T11:39:57;-0.90;97.70
16827;DHT22;8530;49.540;8.576;2022-12-18T11:42:33;-0.90;97.70
16827;DHT22;8530;49.540;8.576;2022-12-18T11:45:18;-0.90;97.70
16827;DHT22;8530;49.540;8.576;2022-12-18T11:47:52;-0.90;97.70
16827;DHT22;8530;49.540;8.576;2022-12-18T11:50:24;-0.80;97.70
16827;DHT22;8530;49.540;8.576;2022-12-18T11:52:51;-0.70;97.70
16827;DHT22;8530;49.540;8.576;2022-12-18T11:55:27;-0.70;97.60
16827;DHT22;8530;49.540;8.576;2022-12-18T11:58:00;-0.60;97.60
16827;DHT22;8530;49.540;8.576;2022-12-18T12:00:31;-0.60;97.50
16827;DHT22;8530;49.540;8.576;2022-12-18T12:06:10;-0.60;97.30
16827;DHT22;8530;49.540;8.576;2022-12-18T12:08:52;-0.60;97.20
16827;DHT22;8530;49.540;8.576;2022-12-18T12:11:33;-0.60;97.20
16827;DHT22;8530;49.540;8.576;2022-12-18T12:14:13;-0.50;97.30
16827;DHT22;8530;49.540;8.576;2022-12-18T12:16:50;-0.50;97.20
16827;DHT22;8530;49.540;8.576;2022-12-18T12:19:32;-0.50;97.30
16827;DHT22;8530;49.540;8.576;2022-12-18T12:22:08;-0.40;97.30
16827;DHT22;8530;49.540;8.576;2022-12-18T12:24:46;-0.30;97.20
16827;DHT22;8530;49.540;8.576;2022-12-18T12:27:22;-0.30;97.20
16827;DHT22;8530;49.540;8.576;2022-12-18T12:30:00;-0.20;97.10
16827;DHT22;8530;49.540;8.576;2022-12-18T12:32:46;-0.20;97.10
16827;DHT22;8530;49.540;8.576;2022-12-18T12:35:27;-0.10;97.00
16827;DHT22;8530;49.540;8.576;2022-12-18T12:38:05;0.00;97.20
16827;DHT22;8530;49.540;8.576;2022-12-18T12:40:36;-0.10;96.80
16827;DHT22;8530;49.540;8.576;2022-12-18T12:43:14;0.00;96.80
16827;DHT22;8530;49.540;8.576;2022-12-18T12:45:47;-0.20;96.30
16827;DHT22;8530;49.540;8.576;2022-12-18T12:48:30;-0.50;96.00
16827;DHT22;8530;49.540;8.576;2022-12-18T12:51:00;-0.70;96.00
16827;DHT22;8530;49.540;8.576;2022-12-18T12:53:32;-0.90;96.20
16827;DHT22;8530;49.540;8.576;2022-12-18T12:56:04;-1.10;96.00
16827;DHT22;8530;49.540;8.576;2022-12-18T12:58:36;-1.30;96.00
16827;DHT22;8530;49.540;8.576;2022-12-18T13:01:13;-1.40;96.10
16827;DHT22;8530;49.540;8.576;2022-12-18T13:03:54;-1.50;96.10
16827;DHT22;8530;49.540;8.576;2022-12-18T13:06:30;-1.60;96.10
16827;DHT22;8530;49.540;8.576;2022-12-18T13:08:59;-1.70;96.10
16827;DHT22;8530;49.540;8.576;2022-12-18T13:11:31;-1.80;96.20
16827;DHT22;8530;49.540;8.576;2022-12-18T13:14:28;-1.90;96.30
16827;DHT22;8530;49.540;8.576;2022-12-18T13:17:14;-1.90;96.40
16827;DHT22;8530;49.540;8.576;2022-12-18T13:19:43;-1.90;96.40
16827;DHT22;8530;49.540;8.576;2022-12-18T13:22:21;-1.80;96.50
16827;DHT22;8530;49.540;8.576;2022-12-18T13:24:49;-1.80;96.20
16827;DHT22;8530;49.540;8.576;2022-12-18T13:30:42;-1.90;96.10
16827;DHT22;8530;49.540;8.576;2022-12-18T13:33:38;-1.90;96.00
16827;DHT22;8530;49.540;8.576;2022-12-18T13:36:14;-1.80;96.10
16827;DHT22;8530;49.540;8.576;2022-12-18T13:38:43;-1.80;96.20
16827;DHT22;8530;49.540;8.576;2022-12-18T13:41:25;-1.70;96.20
16827;DHT22;8530;49.540;8.576;2022-12-18T13:43:54;-1.60;96.30
16827;DHT22;8530;49.540;8.576;2022-12-18T13:46:42;-1.60;96.20
16827;DHT22;8530;49.540;8.576;2022-12-18T13:49:22;-1.50;96.20
16827;DHT22;8530;49.540;8.576;2022-12-18T13:51:52;-1.60;96.20
16827;DHT22;8530;49.540;8.576;2022-12-18T13:54:25;-1.60;96.20
16827;DHT22;8530;49.540;8.576;2022-12-18T13:56:56;-1.60;96.20
16827;DHT22;8530;49.540;8.576;2022-12-18T13:59:33;-1.60;96.30
16827;DHT22;8530;49.540;8.576;2022-12-18T14:02:07;-1.50;96.50
16827;DHT22;8530;49.540;8.576;2022-12-18T14:04:36;-1.60;96.20
16827;DHT22;8530;49.540;8.576;2022-12-18T14:07:06;-1.60;96.20
16827;DHT22;8530;49.540;8.576;2022-12-18T14:09:36;-1.60;96.30
16827;DHT22;8530;49.540;8.576;2022-12-18T14:12:06;-1.60;96.30
16827;DHT22;8530;49.540;8.576;2022-12-18T14:14:52;-1.70;96.30
16827;DHT22;8530;49.540;8.576;2022-12-18T14:17:19;-1.70;96.30
16827;DHT22;8530;49.540;8.576;2022-12-18T14:19:49;-1.70;96.30
16827;DHT22;8530;49.540;8.576;2022-12-18T14:22:20;-1.70;96.30
16827;DHT22;8530;49.540;8.576;2022-12-18T14:25:06;-1.70;96.40
16827;DHT22;8530;49.540;8.576;2022-12-18T14:27:37;-1.80;96.40
16827;DHT22;8530;49.540;8.576;2022-12-18T14:30:24;-1.80;96.40
16827;DHT22;8530;49.540;8.576;2022-12-18T14:33:00;-1.80;96.50
16827;DHT22;8530;49.540;8.576;2022-12-18T14:35:27;-1.80;96.60
16827;DHT22;8530;49.540;8.576;2022-12-18T14:40:59;-1.90;96.80
16827;DHT22;8530;49.540;8.576;2022-12-18T14:43:27;-2.00;96.80
16827;DHT22;8530;49.540;8.576;2022-12-18T14:45:55;-2.00;96.80
16827;DHT22;8530;49.540;8.576;2022-12-18T14:48:31;-2.10;96.80
16827;DHT22;8530;49.540;8.576;2022-12-18T14:51:00;-2.10;96.70
16827;DHT22;8530;49.540;8.576;2022-12-18T14:53:36;-2.20;96.70
16827;DHT22;8530;49.540;8.576;2022-12-18T14:56:14;-2.30;96.70
16827;DHT22;8530;49.540;8.576;2022-12-18T14:58:48;-2.40;96.70
16827;DHT22;8530;49.540;8.576;2022-12-18T15:01:22;-2.40;96.80
16827;DHT22;8530;49.540;8.576;2022-12-18T15:03:50;-2.50;96.70
16827;DHT22;8530;49.540;8.576;2022-12-18T15:06:24;-2.60;96.70
16827;DHT22;8530;49.540;8.576;2022-12-18T15:08:53;-2.70;96.70
16827;DHT22;8530;49.540;8.576;2022-12-18T15:11:35;-2.80;96.70
16827;DHT22;8530;49.540;8.576;2022-12-18T15:14:23;-2.90;96.80
16827;DHT22;8530;49.540;8.576;2022-12-18T15:16:52;-2.90;96.90
16827;DHT22;8530;49.540;8.576;2022-12-18T15:19:21;-3.10;96.70
16827;DHT22;8530;49.540;8.576;2022-12-18T15:21:48;-3.20;96.80
16827;DHT22;8530;49.540;8.576;2022-12-18T15:24:22;-3.30;96.80
16827;DHT22;8530;49.540;8.576;2022-12-18T15:26:50;-3.40;96.90
16827;DHT22;8530;49.540;8.576;2022-12-18T15:29:20;-3.50;96.90
16827;DHT22;8530;49.540;8.576;2022-12-18T15:31:59;-3.50;97.00
16827;DHT22;8530;49.540;8.576;2022-12-18T15:34:26;-3.50;97.00
16827;DHT22;8530;49.540;8.576;2022-12-18T15:36:53;-3.60;97.10
16827;DHT22;8530;49.540;8.576;2022-12-18T15:39:21;-3.60;97.20
16827;DHT22;8530;49.540;8.576;2022-12-18T15:41:48;-3.60;97.20
16827;DHT22;8530;49.540;8.576;2022-12-18T15:44:33;-3.60;97.20
16827;DHT22;8530;49.540;8.576;2022-12-18T15:47:00;-3.60;97.20
16827;DHT22;8530;49.540;8.576;2022-12-18T15:49:27;-3.60;97.30
16827;DHT22;8530;49.540;8.576;2022-12-18T15:51:55;-3.60;97.30
16827;DHT22;8530;49.540;8.576;2022-12-18T15:54:24;-3.60;97.30
16827;DHT22;8530;49.540;8.576;2022-12-18T15:57:07;-3.70;97.30
16827;DHT22;8530;49.540;8.576;2022-12-18T15:59:49;-3.70;97.30
16827;DHT22;8530;49.540;8.576;2022-12-18T16:02:18;-3.70;97.40
16827;DHT22;8530;49.540;8.576;2022-12-18T16:04:46;-3.80;97.40
16827;DHT22;8530;49.540;8.576;2022-12-18T16:07:13;-3.80;97.40
16827;DHT22;8530;49.540;8.576;2022-12-18T16:09:41;-3.70;97.50
16827;DHT22;8530;49.540;8.576;2022-12-18T16:12:15;-3.70;97.60
16827;DHT22;8530;49.540;8.576;2022-12-18T16:14:43;-3.70;97.70
16827;DHT22;8530;49.540;8.576;2022-12-18T16:17:11;-3.60;97.70
16827;DHT22;8530;49.540;8.576;2022-12-18T16:19:39;-3.60;97.70